Station Historical Data
Daily Summary for April 14, 2017 Units:  Both    English   Metric
« Previous Day
Next Day »
Daily Weekly Monthly Yearly Custom
  High: Low: Average:
Temperature: 81.8 °F /  27.7 °C 60.5 °F /  15.8 °C 69 °F /  20.6 °C
Dew Point: 59.8 °F /  15.4 °C 51.3 °F /  10.7 °C 55.4 °F /  13 °C
Humidity: 86% 36% 64%
Wind Speed: 1.0mph /  1.6km/h - 0mph /  0km/h
Wind Gust: 5.0mph /  8km/h - -
Wind- - NNW
Pressure: 30.32 in /  1026.6 hPa 30.21 in /  1022.9 hPa -
Precipitation: 0.00 in /  0 mm    
Historical Graphs
 
 
Tabular Data for April 14, 2017
Time Temperature Dew Point Pressure Wind Wind Speed Wind Gust Humidity Rainfall Rate (Hourly) Conditions
00:00 64.3 °F /  17.9 °C 55.1 °F /  12.8 °C 30.23in /  1023.6hPa Calm     72% 0.00in /  0mm CLR
00:15 63.8 °F /  17.7 °C 55.0 °F /  12.8 °C 30.23in /  1023.6hPa Calm     73% 0.00in /  0mm CLR
00:30 63.5 °F /  17.5 °C 55.4 °F /  13 °C 30.23in /  1023.6hPa Calm     75% 0.00in /  0mm CLR
00:45 63.0 °F /  17.2 °C 55.3 °F /  12.9 °C 30.23in /  1023.6hPa Calm     76% 0.00in /  0mm CLR
01:00 62.8 °F /  17.1 °C 55.5 °F /  13.1 °C 30.23in /  1023.6hPa Calm     77% 0.00in /  0mm CLR
01:15 63.2 °F /  17.3 °C 56.2 °F /  13.4 °C 30.23in /  1023.6hPa Calm     78% 0.00in /  0mm CLR
01:30 63.4 °F /  17.4 °C 56.1 °F /  13.4 °C 30.23in /  1023.6hPa Calm     77% 0.00in /  0mm CLR
01:45 63.5 °F /  17.5 °C 56.2 °F /  13.4 °C 30.22in /  1023.2hPa Calm     77% 0.00in /  0mm CLR
02:00 63.1 °F /  17.3 °C 55.7 °F /  13.2 °C 30.22in /  1023.2hPa Calm     77% 0.00in /  0mm CLR
02:15 62.4 °F /  16.9 °C 55.5 °F /  13.1 °C 30.22in /  1023.2hPa Calm     78% 0.00in /  0mm CLR
02:30 62.0 °F /  16.7 °C 55.4 °F /  13 °C 30.22in /  1023.2hPa Calm     79% 0.00in /  0mm CLR
02:45 61.8 °F /  16.6 °C 55.6 °F /  13.1 °C 30.22in /  1023.2hPa Calm     80% 0.00in /  0mm CLR
03:00 61.6 °F /  16.4 °C 55.7 °F /  13.2 °C 30.22in /  1023.2hPa Calm     81% 0.00in /  0mm CLR
03:15 61.5 °F /  16.4 °C 55.6 °F /  13.1 °C 30.22in /  1023.2hPa Calm     81% 0.00in /  0mm CLR
03:30 61.5 °F /  16.4 °C 56.0 °F /  13.3 °C 30.22in /  1023.2hPa Calm     82% 0.00in /  0mm CLR
03:45 61.3 °F /  16.3 °C 55.4 °F /  13 °C 30.22in /  1023.2hPa Calm     81% 0.00in /  0mm CLR
04:00 61.3 °F /  16.3 °C 55.4 °F /  13 °C 30.22in /  1023.2hPa Calm     81% 0.00in /  0mm CLR
04:15 61.3 °F /  16.3 °C 55.4 °F /  13 °C 30.22in /  1023.2hPa Calm     81% 0.00in /  0mm CLR
04:30 61.3 °F /  16.3 °C 55.4 °F /  13 °C 30.22in /  1023.2hPa Calm     81% 0.00in /  0mm CLR
04:45 61.3 °F /  16.3 °C 55.4 °F /  13 °C 30.22in /  1023.2hPa Calm     81% 0.00in /  0mm CLR
05:00 61.3 °F /  16.3 °C 55.4 °F /  13 °C 30.23in /  1023.6hPa Calm     81% 0.00in /  0mm CLR
05:15 61.3 °F /  16.3 °C 55.4 °F /  13 °C 30.23in /  1023.6hPa Calm     81% 0.00in /  0mm CLR
05:30 61.3 °F /  16.3 °C 55.4 °F /  13 °C 30.23in /  1023.6hPa Calm     81% 0.00in /  0mm CLR
05:45 61.3 °F /  16.3 °C 55.4 °F /  13 °C 30.23in /  1023.6hPa Calm     81% 0.00in /  0mm CLR
06:00 61.3 °F /  16.3 °C 55.4 °F /  13 °C 30.24in /  1023.9hPa Calm     81% 0.00in /  0mm CLR
06:15 61.3 °F /  16.3 °C 55.4 °F /  13 °C 30.24in /  1023.9hPa Calm     81% 0.00in /  0mm CLR
06:30 61.3 °F /  16.3 °C 55.4 °F /  13 °C 30.25in /  1024.3hPa Calm     81% 0.00in /  0mm CLR
06:45 61.3 °F /  16.3 °C 55.4 °F /  13 °C 30.25in /  1024.3hPa Calm     81% 0.00in /  0mm CLR
07:00 61.3 °F /  16.3 °C 55.4 °F /  13 °C 30.25in /  1024.3hPa Calm     81% 0.00in /  0mm CLR
07:15 61.3 °F /  16.3 °C 55.4 °F /  13 °C 30.26in /  1024.6hPa Calm     81% 0.00in /  0mm CLR
07:30 61.3 °F /  16.3 °C 55.4 °F /  13 °C 30.27in /  1024.9hPa Calm     81% 0.00in /  0mm CLR
07:45 61.3 °F /  16.3 °C 55.4 °F /  13 °C 30.27in /  1024.9hPa Calm     81% 0.00in /  0mm CLR
08:00 61.3 °F /  16.3 °C 55.4 °F /  13 °C 30.28in /  1025.3hPa Calm     81% 0.00in /  0mm CLR
08:15 61.3 °F /  16.3 °C 55.4 °F /  13 °C 30.29in /  1025.6hPa Calm     81% 0.00in /  0mm CLR
08:30 61.3 °F /  16.3 °C 55.4 °F /  13 °C 30.29in /  1025.6hPa Calm     81% 0.00in /  0mm CLR
08:45 60.5 °F /  15.8 °C 56.3 °F /  13.5 °C 30.29in /  1025.6hPa Calm     86% 0.00in /  0mm CLR
09:00 61.2 °F /  16.2 °C 56.3 °F /  13.5 °C 30.30in /  1026hPa Calm     84% 0.00in /  0mm CLR
09:15 62.2 °F /  16.8 °C 57.3 °F /  14.1 °C 30.30in /  1026hPa Calm     84% 0.00in /  0mm CLR
09:30 63.2 °F /  17.3 °C 58.0 °F /  14.4 °C 30.30in /  1026hPa Calm     83% 0.00in /  0mm CLR
09:45 64.3 °F /  17.9 °C 58.7 °F /  14.8 °C 30.30in /  1026hPa Calm     82% 0.00in /  0mm CLR
10:00 65.3 °F /  18.5 °C 59.4 °F /  15.2 °C 30.30in /  1026hPa Calm     81% 0.00in /  0mm CLR
10:15 66.9 °F /  19.4 °C 58.7 °F /  14.8 °C 30.31in /  1026.3hPa Calm     75% 0.00in /  0mm CLR
10:30 67.6 °F /  19.8 °C 58.7 °F /  14.8 °C 30.31in /  1026.3hPa Calm   1.0mph /  1.6km/h 73% 0.00in /  0mm CLR
10:45 68.5 °F /  20.3 °C 57.9 °F /  14.4 °C 30.31in /  1026.3hPa Calm     69% 0.00in /  0mm CLR
11:00 69.4 °F /  20.8 °C 58.8 °F /  14.9 °C 30.31in /  1026.3hPa Calm     69% 0.00in /  0mm CLR
11:15 70.3 °F /  21.3 °C 57.5 °F /  14.2 °C 30.32in /  1026.6hPa Calm   1.0mph /  1.6km/h 64% 0.00in /  0mm CLR
11:30 71.5 °F /  21.9 °C 57.8 °F /  14.3 °C 30.32in /  1026.6hPa Calm   1.0mph /  1.6km/h 62% 0.00in /  0mm CLR
11:45 72.2 °F /  22.3 °C 57.1 °F /  13.9 °C 30.32in /  1026.6hPa Calm   1.0mph /  1.6km/h 59% 0.00in /  0mm CLR
12:00 73.2 °F /  22.9 °C 57.5 °F /  14.2 °C 30.32in /  1026.6hPa Calm   1.0mph /  1.6km/h 58% 0.00in /  0mm CLR
12:15 72.8 °F /  22.7 °C 57.2 °F /  14 °C 30.31in /  1026.3hPa Calm   1.0mph /  1.6km/h 58% 0.00in /  0mm CLR
12:30 72.9 °F /  22.7 °C 56.8 °F /  13.8 °C 30.31in /  1026.3hPa Calm     57% 0.00in /  0mm CLR
12:45 72.8 °F /  22.7 °C 57.6 °F /  14.2 °C 30.30in /  1026hPa Calm     59% 0.00in /  0mm CLR
13:00 73.0 °F /  22.8 °C 58.3 °F /  14.6 °C 30.30in /  1026hPa Calm     60% 0.00in /  0mm CLR
13:15 73.5 °F /  23.1 °C 58.3 °F /  14.6 °C 30.29in /  1025.6hPa Calm   2.0mph /  3.2km/h 59% 0.00in /  0mm CLR
13:30 74.6 °F /  23.7 °C 59.8 °F /  15.4 °C 30.29in /  1025.6hPa Calm   2.0mph /  3.2km/h 60% 0.00in /  0mm CLR
13:45 77.8 °F /  25.4 °C 58.8 °F /  14.9 °C 30.28in /  1025.3hPa NW 1.0mph /  1.6km/h 2.0mph /  3.2km/h 52% 0.00in /  0mm CLR
14:00 80.5 °F /  26.9 °C 58.4 °F /  14.7 °C 30.27in /  1024.9hPa Calm   2.0mph /  3.2km/h 47% 0.00in /  0mm CLR
14:15 81.8 °F /  27.7 °C 56.5 °F /  13.6 °C 30.27in /  1024.9hPa Calm   2.0mph /  3.2km/h 42% 0.00in /  0mm CLR
14:30 81.7 °F /  27.6 °C 55.1 °F /  12.8 °C 30.26in /  1024.6hPa Calm   2.0mph /  3.2km/h 40% 0.00in /  0mm CLR
14:45 81.2 °F /  27.3 °C 55.9 °F /  13.3 °C 30.25in /  1024.3hPa Calm   2.0mph /  3.2km/h 42% 0.00in /  0mm CLR
15:00 81.0 °F /  27.2 °C 55.1 °F /  12.8 °C 30.25in /  1024.3hPa Calm   5.0mph /  8km/h 41% 0.00in /  0mm CLR
15:15 80.8 °F /  27.1 °C 52.9 °F /  11.6 °C 30.24in /  1023.9hPa Calm   2.0mph /  3.2km/h 38% 0.00in /  0mm CLR
15:30 79.9 °F /  26.6 °C 55.4 °F /  13 °C 30.23in /  1023.6hPa Calm   5.0mph /  8km/h 43% 0.00in /  0mm CLR
15:45 80.5 °F /  26.9 °C 54.0 °F /  12.2 °C 30.23in /  1023.6hPa Calm   3.0mph /  4.8km/h 40% 0.00in /  0mm CLR
16:00 80.7 °F /  27.1 °C 52.7 °F /  11.5 °C 30.22in /  1023.2hPa Calm   3.0mph /  4.8km/h 38% 0.00in /  0mm CLR
16:15 80.1 °F /  26.7 °C 54.2 °F /  12.3 °C 30.22in /  1023.2hPa Calm   1.0mph /  1.6km/h 41% 0.00in /  0mm CLR
16:30 80.3 °F /  26.8 °C 54.5 °F /  12.5 °C 30.21in /  1022.9hPa Calm   1.0mph /  1.6km/h 41% 0.00in /  0mm CLR
16:45 80.5 °F /  26.9 °C 51.8 °F /  11 °C 30.21in /  1022.9hPa North 1.0mph /  1.6km/h 2.0mph /  3.2km/h 37% 0.00in /  0mm CLR
17:00 80.9 °F /  27.2 °C 51.4 °F /  10.8 °C 30.21in /  1022.9hPa NNW 1.0mph /  1.6km/h 3.0mph /  4.8km/h 36% 0.00in /  0mm CLR
17:15 80.8 °F /  27.1 °C 52.8 °F /  11.6 °C 30.21in /  1022.9hPa Calm   1.0mph /  1.6km/h 38% 0.00in /  0mm CLR
17:30 80.7 °F /  27.1 °C 51.3 °F /  10.7 °C 30.21in /  1022.9hPa NNW 1.0mph /  1.6km/h 3.0mph /  4.8km/h 36% 0.00in /  0mm CLR
17:45 80.4 °F /  26.9 °C 52.5 °F /  11.4 °C 30.21in /  1022.9hPa Calm   1.0mph /  1.6km/h 38% 0.00in /  0mm CLR
18:00 80.1 °F /  26.7 °C 53.6 °F /  12 °C 30.21in /  1022.9hPa Calm   1.0mph /  1.6km/h 40% 0.00in /  0mm CLR
18:15 79.1 °F /  26.2 °C 53.4 °F /  11.9 °C 30.21in /  1022.9hPa Calm   1.0mph /  1.6km/h 41% 0.00in /  0mm CLR
18:30 78.4 °F /  25.8 °C 53.4 °F /  11.9 °C 30.21in /  1022.9hPa Calm   2.0mph /  3.2km/h 42% 0.00in /  0mm CLR
18:45 78.2 °F /  25.7 °C 52.6 °F /  11.4 °C 30.21in /  1022.9hPa Calm   1.0mph /  1.6km/h 41% 0.00in /  0mm CLR
19:00 77.4 °F /  25.2 °C 52.5 °F /  11.4 °C 30.21in /  1022.9hPa Calm     42% 0.00in /  0mm CLR
19:15 76.8 °F /  24.9 °C 52.6 °F /  11.4 °C 30.21in /  1022.9hPa Calm     43% 0.00in /  0mm CLR
19:30 76.0 °F /  24.4 °C 53.1 °F /  11.7 °C 30.21in /  1022.9hPa Calm     45% 0.00in /  0mm CLR
19:45 75.2 °F /  24 °C 53.6 °F /  12 °C 30.21in /  1022.9hPa Calm     47% 0.00in /  0mm CLR
20:00 74.3 °F /  23.5 °C 53.9 °F /  12.2 °C 30.22in /  1023.2hPa Calm     49% 0.00in /  0mm CLR
20:15 73.3 °F /  22.9 °C 53.6 °F /  12 °C 30.22in /  1023.2hPa Calm     50% 0.00in /  0mm CLR
20:30 72.4 °F /  22.4 °C 53.8 °F /  12.1 °C 30.23in /  1023.6hPa Calm     52% 0.00in /  0mm CLR
20:45 71.5 °F /  21.9 °C 54.0 °F /  12.2 °C 30.23in /  1023.6hPa Calm     54% 0.00in /  0mm CLR
21:00 70.6 °F /  21.4 °C 54.1 °F /  12.3 °C 30.23in /  1023.6hPa Calm     56% 0.00in /  0mm CLR
21:15 69.8 °F /  21 °C 53.8 °F /  12.1 °C 30.24in /  1023.9hPa Calm     57% 0.00in /  0mm CLR
21:30 69.2 °F /  20.7 °C 54.3 °F /  12.4 °C 30.24in /  1023.9hPa Calm     59% 0.00in /  0mm CLR
21:45 68.4 °F /  20.2 °C 54.4 °F /  12.4 °C 30.25in /  1024.3hPa Calm     61% 0.00in /  0mm CLR
22:00 67.6 °F /  19.8 °C 54.6 °F /  12.6 °C 30.25in /  1024.3hPa Calm     63% 0.00in /  0mm CLR
22:15 66.8 °F /  19.3 °C 54.7 °F /  12.6 °C 30.25in /  1024.3hPa Calm     65% 0.00in /  0mm CLR
22:30 66.4 °F /  19.1 °C 55.1 °F /  12.8 °C 30.25in /  1024.3hPa Calm     67% 0.00in /  0mm CLR
22:45 65.9 °F /  18.8 °C 55.0 °F /  12.8 °C 30.25in /  1024.3hPa Calm     68% 0.00in /  0mm CLR
23:00 65.4 °F /  18.6 °C 55.4 °F /  13 °C 30.25in /  1024.3hPa Calm     70% 0.00in /  0mm CLR
23:15 65.0 °F /  18.3 °C 55.0 °F /  12.8 °C 30.26in /  1024.6hPa Calm     70% 0.00in /  0mm CLR
23:30 64.3 °F /  17.9 °C 55.1 °F /  12.8 °C 30.26in /  1024.6hPa Calm     72% 0.00in /  0mm CLR
23:45 63.7 °F /  17.6 °C 55.3 °F /  12.9 °C 30.26in /  1024.6hPa Calm     74% 0.00in /  0mm CLR
Piedmont Bend
Compliments of Weather Underground - 2 mb